createdAt,value
2022-10-22T16:13:16.703Z,0.90
2022-10-22T16:15:45.754Z,0.90
2022-10-22T16:21:44.728Z,0.90
2022-10-22T16:24:18.684Z,1.10
2022-10-22T16:26:49.675Z,1.00
2022-10-22T16:29:20.574Z,1.00
2022-10-22T16:31:50.867Z,1.10
2022-10-22T16:34:21.883Z,1.10
2022-10-22T16:39:48.669Z,1.20
2022-10-22T16:42:18.574Z,1.40
2022-10-22T16:44:47.743Z,1.40
2022-10-22T16:47:16.742Z,1.10
2022-10-22T16:49:46.045Z,1.10
2022-10-22T16:52:15.346Z,1.30
2022-10-22T16:54:44.341Z,1.30
2022-10-22T16:57:14.200Z,1.30
2022-10-22T16:59:43.449Z,1.30
2022-10-22T17:02:12.770Z,1.30
2022-10-22T17:04:42.051Z,1.60
2022-10-22T17:07:10.851Z,1.60
2022-10-22T17:09:40.237Z,1.30
2022-10-22T17:12:09.648Z,1.20
2022-10-22T17:14:38.522Z,1.30
2022-10-22T17:17:07.466Z,1.30
2022-10-22T17:19:39.389Z,1.50
2022-10-22T17:22:08.913Z,1.30
2022-10-22T17:24:39.439Z,1.40
2022-10-22T17:27:08.451Z,1.20
2022-10-22T17:29:38.105Z,1.10
2022-10-22T17:32:07.417Z,1.20
2022-10-22T17:34:36.358Z,1.70
2022-10-22T17:37:05.179Z,1.00
2022-10-22T17:39:33.978Z,1.20
2022-10-22T17:42:02.833Z,1.10
2022-10-22T17:44:31.533Z,1.20
2022-10-22T17:47:01.760Z,1.10
2022-10-22T17:49:31.037Z,1.30
2022-10-22T17:54:34.581Z,1.30
2022-10-22T17:57:04.096Z,1.50
2022-10-22T17:59:34.296Z,1.40
2022-10-22T18:02:03.536Z,1.40
2022-10-22T18:04:34.908Z,1.60
2022-10-22T18:07:03.596Z,1.60
2022-10-22T18:09:32.317Z,1.70
2022-10-22T18:12:01.078Z,1.70
2022-10-22T18:14:29.846Z,1.60
2022-10-22T18:16:58.598Z,1.40
2022-10-22T18:19:27.338Z,1.40
2022-10-22T18:21:56.088Z,1.60
2022-10-22T18:24:24.929Z,1.60
2022-10-22T18:26:53.708Z,1.40
2022-10-22T18:29:23.092Z,1.50
2022-10-22T18:31:52.880Z,1.40
2022-10-22T18:34:23.857Z,1.30
2022-10-22T18:36:53.258Z,1.60
2022-10-22T18:39:22.106Z,1.20
2022-10-22T18:41:51.557Z,1.30
2022-10-22T18:44:21.447Z,1.20
2022-10-22T18:46:50.375Z,1.40
2022-10-22T18:49:20.066Z,1.30
2022-10-22T18:51:53.153Z,1.10
2022-10-22T18:54:23.941Z,1.20
2022-10-22T18:57:02.589Z,1.40
2022-10-22T18:59:32.216Z,1.20
2022-10-22T19:02:01.369Z,1.00
2022-10-22T19:04:39.733Z,0.90
2022-10-22T19:07:14.650Z,0.80
2022-10-22T19:09:43.929Z,0.90
2022-10-22T19:12:15.350Z,1.30
2022-10-22T19:14:44.092Z,1.00
2022-10-22T19:17:12.802Z,1.20
2022-10-22T19:19:41.579Z,1.10
2022-10-22T19:22:10.143Z,1.50
2022-10-22T19:24:38.881Z,1.20
2022-10-22T19:27:08.915Z,1.30
2022-10-22T19:29:37.921Z,1.40
2022-10-22T19:34:41.603Z,1.30
2022-10-22T19:37:10.352Z,1.50
2022-10-22T19:39:39.037Z,1.40
2022-10-22T19:42:07.704Z,1.10
2022-10-22T19:44:36.509Z,1.30
2022-10-22T19:47:05.212Z,1.30
2022-10-22T19:49:34.042Z,1.10
2022-10-22T19:52:03.167Z,1.00
2022-10-22T19:54:31.836Z,1.20
2022-10-22T19:57:00.639Z,1.00
2022-10-22T19:59:31.462Z,1.00
2022-10-22T20:02:01.517Z,1.00
2022-10-22T20:04:30.521Z,1.10
2022-10-22T20:06:59.418Z,1.10
2022-10-22T20:09:28.065Z,0.80
2022-10-22T20:11:56.607Z,0.80
2022-10-22T20:14:25.238Z,0.80
2022-10-22T20:16:54.218Z,0.80
2022-10-22T20:19:26.780Z,0.80
2022-10-22T20:21:55.837Z,0.40
2022-10-22T20:24:25.367Z,0.50
2022-10-22T20:26:54.068Z,0.60
2022-10-22T20:29:22.689Z,0.60
2022-10-22T20:31:51.379Z,0.50
2022-10-22T20:34:19.969Z,0.50
2022-10-22T20:36:49.687Z,0.50
2022-10-22T20:39:19.285Z,0.30
2022-10-22T20:41:50.820Z,0.40
2022-10-22T20:44:19.956Z,0.40
2022-10-22T20:46:48.646Z,0.40
2022-10-22T20:49:18.709Z,0.30
2022-10-22T20:51:48.676Z,0.50
2022-10-22T20:54:19.766Z,0.50
2022-10-22T20:56:48.503Z,0.30
2022-10-22T20:59:17.303Z,0.30
2022-10-22T21:01:52.124Z,0.30
2022-10-22T21:04:22.069Z,0.40
2022-10-22T21:06:52.602Z,0.20
2022-10-22T21:09:22.162Z,0.40
2022-10-22T21:11:51.902Z,0.20
2022-10-22T21:14:23.648Z,0.30
2022-10-22T21:16:54.001Z,0.30
2022-10-22T21:19:23.957Z,0.50
2022-10-22T21:21:53.297Z,0.50
2022-10-22T21:24:25.142Z,0.60
2022-10-22T21:26:54.648Z,0.30
2022-10-22T21:29:23.681Z,0.40
2022-10-22T21:31:53.512Z,0.30
2022-10-22T21:34:22.229Z,0.40
2022-10-22T21:39:19.502Z,0.40
2022-10-22T21:41:48.309Z,0.30
2022-10-22T21:46:45.710Z,0.20
2022-10-22T21:49:14.932Z,0.20
2022-10-22T21:51:44.441Z,0.30
2022-10-22T21:54:13.879Z,0.20
2022-10-22T21:56:42.897Z,0.50
2022-10-22T21:59:14.542Z,0.30
2022-10-22T22:04:12.064Z,0.30
2022-10-22T22:06:40.787Z,0.30
2022-10-22T22:09:10.086Z,0.40
2022-10-22T22:11:39.301Z,0.30
2022-10-22T22:14:09.865Z,0.20
2022-10-22T22:16:39.896Z,0.50
2022-10-22T22:19:10.642Z,0.40
2022-10-22T22:21:41.291Z,0.30
2022-10-22T22:24:13.409Z,0.40
2022-10-22T22:26:42.179Z,0.30
2022-10-22T22:29:11.394Z,0.40
2022-10-22T22:31:40.822Z,0.30
2022-10-22T22:34:16.320Z,0.50
2022-10-22T22:36:47.012Z,0.40
2022-10-22T22:39:20.556Z,0.40
2022-10-22T22:41:49.965Z,0.30
2022-10-22T22:44:18.709Z,0.40
2022-10-22T22:46:47.317Z,0.30
2022-10-22T22:51:44.760Z,0.50
2022-10-22T22:54:13.344Z,0.30
2022-10-22T22:56:42.012Z,0.40
2022-10-22T23:01:40.336Z,0.30
2022-10-22T23:04:16.679Z,0.40
2022-10-22T23:06:46.567Z,0.60
2022-10-22T23:09:16.847Z,0.20
2022-10-22T23:11:47.361Z,0.40
2022-10-22T23:14:18.172Z,0.40
2022-10-22T23:16:49.871Z,0.50
2022-10-22T23:19:21.451Z,0.50
2022-10-22T23:21:53.224Z,0.40
2022-10-22T23:24:24.853Z,0.70
2022-10-22T23:26:56.026Z,0.40
2022-10-22T23:29:32.380Z,0.50
2022-10-22T23:32:03.396Z,0.30
2022-10-22T23:34:33.466Z,0.50
2022-10-22T23:37:02.303Z,0.60
2022-10-22T23:39:31.293Z,0.40
2022-10-22T23:41:59.990Z,0.40
2022-10-22T23:46:57.293Z,0.50
2022-10-22T23:49:25.980Z,0.70
2022-10-22T23:51:56.179Z,0.30
2022-10-22T23:54:24.809Z,0.30
2022-10-22T23:56:53.499Z,0.50
